Flight Track Log - Related Links

Times and Time Zones

All times are in EDT time to prevent confusion due to time zone crossing. See the THY1074 flight status page for this flight to view local times or setup timezone preferences in your user account.

Time Position Orientation Groundspeed Altitude Reporting Facility
EDT Latitude Longitude Course Direction KTS MPH feet Rate Location/Type
Wed 03:57:00 AM 41.3889 21.3698 91° East  Level Estimated
Wed 03:58:00 AM 41.3860 21.4966 92° East  Level Estimated
Wed 03:59:00 AM 41.3829 21.6234 92° East  Level Estimated
Wed 04:00:00 AM 41.3796 21.7502 92° East  Level Estimated
Wed 04:01:00 AM 41.3762 21.8769 92° East  Level Estimated
Wed 04:02:00 AM 41.3727 22.0037 92° East  Level Estimated
Wed 04:03:00 AM 41.3691 22.1304 92° East  Level Estimated
Wed 04:04:00 AM 41.3653 22.2572 92° East  Level Estimated
Wed 04:05:00 AM 41.3613 22.3839 92° East  Level Estimated
Wed 04:06:00 AM 41.3573 22.5105 92° East  Level Estimated
Wed 04:07:00 AM 41.3531 22.6372 92° East  Level Estimated
Wed 04:08:00 AM 41.3487 22.7639 93° East  Level Estimated
Wed 04:09:00 AM 41.3442 22.8905 93° East  Level Estimated
Wed 04:10:00 AM 41.3396 23.0172 93° East  Level Estimated
Wed 04:11:00 AM 41.3348 23.1438 93° East  Level Estimated
Wed 04:12:00 AM 41.3299 23.2703 93° East  Level Estimated
Wed 04:13:00 AM 41.3248 23.3969 93° East  Level Estimated
Wed 04:14:00 AM 41.3197 23.5235 93° East  Level Estimated
Wed 04:15:00 AM 41.3144 23.6500 93° East  Level Estimated
Wed 04:16:00 AM 41.3089 23.7765 93° East  Level Estimated
Wed 04:17:00 AM 41.3033 23.9030 93° East  Level Estimated
Wed 04:18:00 AM 41.2976 24.0295 93° East  Level Estimated
Wed 04:19:00 AM 41.2917 24.1559 93° East  Level Estimated
Wed 04:20:00 AM 41.2857 24.2823 94° East  Level Estimated
Wed 04:21:00 AM 41.2795 24.4087 94° East  Level Estimated
Wed 04:22:00 AM 41.2732 24.5351 94° East  Level Estimated
Wed 04:23:00 AM 41.2668 24.6614 94° East  Level Estimated
Wed 04:24:00 AM 41.2602 24.7878 94° East  Level Estimated
Wed 04:25:00 AM 41.2535 24.9140 94° East  Level Estimated
Wed 04:26:00 AM 41.2467 25.0403 94° East  Level Estimated
Wed 04:27:00 AM 41.2397 25.1665 94° East  Level Estimated
Wed 04:28:00 AM 41.2326 25.2928 94° East  Level Estimated
Wed 04:29:00 AM 41.2253 25.4189 94° East  Level Estimated
Wed 04:30:00 AM 41.2179 25.5451 94° East  Level Estimated
Wed 04:31:00 AM 41.2104 25.6712 94° East  Level Estimated
Wed 04:32:00 AM 41.2027 25.7973 95° East  Level Estimated
Wed 04:33:00 AM 41.1949 25.9234 95° East  Level Estimated
Wed 04:34:00 AM 41.1870 26.0494 95° East  Level Estimated
Wed 04:35:00 AM 41.1789 26.1755 95° East  Level Estimated
Wed 04:36:00 AM 41.1707 26.3014 95° East  Level Estimated
Wed 04:37:00 AM 41.1623 26.4274 95° East  Level Estimated
Wed 04:38:00 AM 41.1538 26.5533 95° East  Level Estimated
Wed 04:39:00 AM 41.1452 26.6792 95° East  Level Estimated
Wed 04:40:00 AM 41.1364 26.8050 95° East  Level Estimated
Wed 04:41:00 AM 41.1275 26.9308 95° East  Level Estimated
Wed 04:42:00 AM 41.1185 27.0566 95° East  Level Estimated
Wed 04:43:00 AM 41.1093 27.1824 95° East  Level Estimated
Wed 04:44:00 AM 41.1000 27.3081 96° East  Level Estimated
Wed 04:45:00 AM 41.0905 27.4337 96° East  Level Estimated
Wed 04:46:00 AM 41.0809 27.5594 96° East  Level Estimated
Wed 04:47:00 AM 41.0712 27.6850 96° East  Level Estimated
Wed 04:48:00 AM 41.0613 27.8105 96° East  Level Estimated
Wed 04:49:00 AM 41.0513 27.9361 96° East  Level Estimated
Wed 04:50:00 AM 41.0412 28.0616 96° East  Level Estimated
Wed 04:51:00 AM 41.0309 28.1870 96° East  Level Estimated
Wed 04:52:00 AM 41.0205 28.3124 96° East  Level Estimated
Wed 04:53:00 AM 41.0100 28.4378 96° East  Level Estimated
Wed 04:54:00 AM 40.9993 28.5631 96° East  Level Estimated
Wed 04:55:00 AM 40.9885 28.6884 96° East  Level Estimated
Wed 04:56:00 AM 40.9776 28.8136 97° East  Level Estimated
Wed 04:57:00 AM 40.9769 28.8211 97° East  Level Estimated
Wed 04:58:00 AM 40.9769 28.8211 21° North  Level Estimated
Wed 04:59:00 AM 40.9769 28.8211 21° North  Level Estimated
Wed 05:00:00 AM 40.9769 28.8211 21° North  Level Estimated
Wed 05:01:00 AM 40.9769 28.8211 21° North  Level Estimated
Wed 05:02:00 AM 40.9769 28.8211 21° North  Level Estimated
Wed 05:03:00 AM 40.9769 28.8211 21° North  Level Estimated
Wed 05:04:00 AM 40.9769 28.8211 21° North  Level Estimated
Wed 05:05:00 AM 40.9769 28.8211 21° North  Level Estimated
Wed 05:06:00 AM 40.9769 28.8211 21° North  Level Estimated
Wed 05:07:00 AM 40.9769 28.8211 21° North  Level Estimated
Wed 05:08:00 AM 40.9769 28.8211 21° North  Level Estimated
Wed 05:09:00 AM 40.9769 28.8211 21° North  Level Estimated
Wed 05:10:00 AM 40.9769 28.8211 21° North  Level Estimated
Wed 05:11:00 AM 40.9769 28.8211 21° North  Level Estimated
Wed 05:12:00 AM 40.9769 28.8211 21° North  Level Estimated

Login

Don't have an account? Register now (free) for customized features, flight alerts, and more!